sensor_id;sensor_type;location;lat;lon;timestamp;pressure;altitude;pressure_sealevel;temperature;humidity
10476;BME280;26166;48.264;11.436;2024-02-28T00:02:34;95994.19;;;10.18;59.72
10476;BME280;26166;48.264;11.436;2024-02-28T00:05:34;95993.53;;;10.16;59.94
10476;BME280;26166;48.264;11.436;2024-02-28T00:08:35;95987.66;;;10.14;59.67
10476;BME280;26166;48.264;11.436;2024-02-28T00:11:35;95984.66;;;10.17;59.56
10476;BME280;26166;48.264;11.436;2024-02-28T00:14:35;95996.81;;;10.18;60.02
10476;BME280;26166;48.264;11.436;2024-02-28T00:17:39;95993.53;;;10.16;59.67
10476;BME280;26166;48.264;11.436;2024-02-28T00:20:44;95995.53;;;10.14;59.70
10476;BME280;26166;48.264;11.436;2024-02-28T00:23:44;96000.59;;;10.16;59.94
10476;BME280;26166;48.264;11.436;2024-02-28T00:26:45;96002.41;;;10.15;60.11
10476;BME280;26166;48.264;11.436;2024-02-28T00:29:45;95997.16;;;10.15;59.80
10476;BME280;26166;48.264;11.436;2024-02-28T00:32:46;96001.22;;;10.18;60.01
10476;BME280;26166;48.264;11.436;2024-02-28T00:35:46;96000.41;;;10.17;59.81
10476;BME280;26166;48.264;11.436;2024-02-28T00:38:47;96001.59;;;10.15;59.95
10476;BME280;26166;48.264;11.436;2024-02-28T00:41:47;96004.03;;;10.16;59.94
10476;BME280;26166;48.264;11.436;2024-02-28T00:44:47;96004.69;;;10.18;59.86
10476;BME280;26166;48.264;11.436;2024-02-28T00:47:47;96004.03;;;10.16;59.73
10476;BME280;26166;48.264;11.436;2024-02-28T00:50:47;96006.03;;;10.14;60.24
10476;BME280;26166;48.264;11.436;2024-02-28T00:53:48;96019.13;;;10.14;59.83
10476;BME280;26166;48.264;11.436;2024-02-28T00:56:48;96027.00;;;10.14;59.91
10476;BME280;26166;48.264;11.436;2024-02-28T00:59:48;96033.09;;;10.15;60.18
10476;BME280;26166;48.264;11.436;2024-02-28T01:02:48;96040.13;;;10.14;60.02
10476;BME280;26166;48.264;11.436;2024-02-28T01:05:49;96040.28;;;10.13;60.30
10476;BME280;26166;48.264;11.436;2024-02-28T01:08:49;96049.97;;;10.12;60.43
10476;BME280;26166;48.264;11.436;2024-02-28T01:11:49;96052.78;;;10.10;60.40
10476;BME280;26166;48.264;11.436;2024-02-28T01:14:49;96064.91;;;10.11;60.25
10476;BME280;26166;48.264;11.436;2024-02-28T01:17:49;96066.53;;;10.13;60.28
10476;BME280;26166;48.264;11.436;2024-02-28T01:20:49;96071.63;;;10.14;59.97
10476;BME280;26166;48.264;11.436;2024-02-28T01:23:51;96075.06;;;10.15;59.96
10476;BME280;26166;48.264;11.436;2024-02-28T01:26:51;96074.25;;;10.14;60.21
10476;BME280;26166;48.264;11.436;2024-02-28T01:29:51;96080.47;;;10.13;59.90
10476;BME280;26166;48.264;11.436;2024-02-28T01:32:53;96085.56;;;10.15;59.96
10476;BME280;26166;48.264;11.436;2024-02-28T01:35:54;96093.59;;;10.13;60.22
10476;BME280;26166;48.264;11.436;2024-02-28T01:38:55;96096.41;;;10.11;60.03
10476;BME280;26166;48.264;11.436;2024-02-28T01:41:55;96102.63;;;10.10;60.31
10476;BME280;26166;48.264;11.436;2024-02-28T01:44:55;96110.34;;;10.12;59.92
10476;BME280;26166;48.264;11.436;2024-02-28T01:47:55;96104.09;;;10.13;60.08
10476;BME280;26166;48.264;11.436;2024-02-28T01:50:55;96106.72;;;10.13;60.27
10476;BME280;26166;48.264;11.436;2024-02-28T01:53:56;96103.13;;;10.14;60.25
10476;BME280;26166;48.264;11.436;2024-02-28T01:56:56;96096.88;;;10.15;59.84
10476;BME280;26166;48.264;11.436;2024-02-28T01:59:57;96101.31;;;10.15;59.96
10476;BME280;26166;48.264;11.436;2024-02-28T02:02:57;96102.13;;;10.15;60.04
10476;BME280;26166;48.264;11.436;2024-02-28T02:05:57;96095.25;;;10.14;60.12
10476;BME280;26166;48.264;11.436;2024-02-28T02:08:57;96090.81;;;10.15;60.08
10476;BME280;26166;48.264;11.436;2024-02-28T02:11:58;96102.13;;;10.15;60.04
10476;BME280;26166;48.264;11.436;2024-02-28T02:14:58;96101.16;;;10.16;60.10
10476;BME280;26166;48.264;11.436;2024-02-28T02:17:58;96100.50;;;10.14;60.18
10476;BME280;26166;48.264;11.436;2024-02-28T02:21:00;96096.06;;;10.15;59.79
10476;BME280;26166;48.264;11.436;2024-02-28T02:24:02;96099.03;;;10.11;60.07
10476;BME280;26166;48.264;11.436;2024-02-28T02:27:02;96091.16;;;10.11;59.86
10476;BME280;26166;48.264;11.436;2024-02-28T02:30:05;96095.59;;;10.11;59.75
10476;BME280;26166;48.264;11.436;2024-02-28T02:33:05;96092.97;;;10.11;59.76
10476;BME280;26166;48.264;11.436;2024-02-28T02:36:05;96098.03;;;10.13;59.74
10476;BME280;26166;48.264;11.436;2024-02-28T02:39:06;96097.38;;;10.10;60.05
10476;BME280;26166;48.264;11.436;2024-02-28T02:42:08;96092.16;;;10.10;59.76
10476;BME280;26166;48.264;11.436;2024-02-28T02:45:08;96088.69;;;10.10;59.75
10476;BME280;26166;48.264;11.436;2024-02-28T02:48:08;96089.66;;;10.09;60.07
10476;BME280;26166;48.264;11.436;2024-02-28T02:51:08;96098.53;;;10.08;59.96
10476;BME280;26166;48.264;11.436;2024-02-28T02:54:09;96104.13;;;10.05;59.71
10476;BME280;26166;48.264;11.436;2024-02-28T02:57:09;96091.00;;;10.05;59.95
10476;BME280;26166;48.264;11.436;2024-02-28T03:00:09;96090.16;;;10.04;60.13
10476;BME280;26166;48.264;11.436;2024-02-28T03:03:10;96099.22;;;10.02;59.85
10476;BME280;26166;48.264;11.436;2024-02-28T03:06:10;96108.72;;;10.03;59.93
10476;BME280;26166;48.264;11.436;2024-02-28T03:09:10;96108.06;;;10.01;59.84
10476;BME280;26166;48.264;11.436;2024-02-28T03:12:10;96116.59;;;10.03;60.15
10476;BME280;26166;48.264;11.436;2024-02-28T03:15:10;96121.19;;;10.01;59.97
10476;BME280;26166;48.264;11.436;2024-02-28T03:18:11;96124.47;;;10.03;59.92
10476;BME280;26166;48.264;11.436;2024-02-28T03:21:11;96134.78;;;10.04;59.73
10476;BME280;26166;48.264;11.436;2024-02-28T03:24:11;96133.31;;;10.02;59.56
10476;BME280;26166;48.264;11.436;2024-02-28T03:27:11;96133.66;;;9.99;60.17
10476;BME280;26166;48.264;11.436;2024-02-28T03:30:11;96133.81;;;9.97;60.07
10476;BME280;26166;48.264;11.436;2024-02-28T03:33:12;96128.72;;;9.96;59.83
10476;BME280;26166;48.264;11.436;2024-02-28T03:36:12;96133.81;;;9.97;60.10
10476;BME280;26166;48.264;11.436;2024-02-28T03:39:12;96143.31;;;9.98;59.96
10476;BME280;26166;48.264;11.436;2024-02-28T03:42:13;96142.34;;;9.99;59.79
10476;BME280;26166;48.264;11.436;2024-02-28T03:45:13;96145.44;;;10.03;59.91
10476;BME280;26166;48.264;11.436;2024-02-28T03:48:13;96145.44;;;10.03;59.54
10476;BME280;26166;48.264;11.436;2024-02-28T03:51:13;96150.69;;;10.03;59.86
10476;BME280;26166;48.264;11.436;2024-02-28T03:54:14;96145.44;;;10.03;59.86
10476;BME280;26166;48.264;11.436;2024-02-28T03:57:14;96146.44;;;10.02;59.75
10476;BME280;26166;48.264;11.436;2024-02-28T04:00:14;96164.81;;;10.02;59.73
10476;BME280;26166;48.264;11.436;2024-02-28T04:03:15;96169.75;;;10.05;59.44
10476;BME280;26166;48.264;11.436;2024-02-28T04:06:15;96167.75;;;10.07;59.49
10476;BME280;26166;48.264;11.436;2024-02-28T04:09:15;96165.31;;;10.05;59.33
10476;BME280;26166;48.264;11.436;2024-02-28T04:12:15;96168.75;;;10.06;59.21
10476;BME280;26166;48.264;11.436;2024-02-28T04:15:15;96176.94;;;10.03;59.45
10476;BME280;26166;48.264;11.436;2024-02-28T04:18:16;96174.66;;;10.00;59.67
10476;BME280;26166;48.264;11.436;2024-02-28T04:21:16;96172.03;;;10.00;59.46
10476;BME280;26166;48.264;11.436;2024-02-28T04:24:16;96171.19;;;9.99;59.57
10476;BME280;26166;48.264;11.436;2024-02-28T04:27:16;96171.69;;;10.03;59.65
10476;BME280;26166;48.264;11.436;2024-02-28T04:30:16;96180.88;;;9.99;59.82
10476;BME280;26166;48.264;11.436;2024-02-28T04:33:17;96184.19;;;10.01;59.77
10476;BME280;26166;48.264;11.436;2024-02-28T04:36:17;96193.00;;;10.00;59.77
10476;BME280;26166;48.264;11.436;2024-02-28T04:39:17;96187.44;;;10.03;59.45
10476;BME280;26166;48.264;11.436;2024-02-28T04:42:17;96194.31;;;10.04;59.43
10476;BME280;26166;48.264;11.436;2024-02-28T04:45:17;96207.44;;;10.04;59.57
10476;BME280;26166;48.264;11.436;2024-02-28T04:48:18;96209.25;;;10.03;59.28
10476;BME280;26166;48.264;11.436;2024-02-28T04:51:18;96204.19;;;10.02;59.33
10476;BME280;26166;48.264;11.436;2024-02-28T04:54:18;96204.19;;;10.02;59.39
10476;BME280;26166;48.264;11.436;2024-02-28T04:57:18;96213.69;;;10.03;59.42
10476;BME280;26166;48.264;11.436;2024-02-28T05:00:19;96211.72;;;10.05;59.18
10476;BME280;26166;48.264;11.436;2024-02-28T05:03:19;96221.25;;;10.06;59.59
10476;BME280;26166;48.264;11.436;2024-02-28T05:06:19;96219.44;;;10.06;59.55
10476;BME280;26166;48.264;11.436;2024-02-28T05:09:19;96223.88;;;10.06;59.29
10476;BME280;26166;48.264;11.436;2024-02-28T05:12:19;96229.25;;;10.04;59.18
10476;BME280;26166;48.264;11.436;2024-02-28T05:15:19;96245.50;;;10.00;59.46
10476;BME280;26166;48.264;11.436;2024-02-28T05:18:20;96247.16;;;10.01;59.65
10476;BME280;26166;48.264;11.436;2024-02-28T05:21:20;96243.53;;;10.02;59.30
10476;BME280;26166;48.264;11.436;2024-02-28T05:24:20;96241.25;;;9.99;59.63
10476;BME280;26166;48.264;11.436;2024-02-28T05:27:20;96245.50;;;10.00;59.42
10476;BME280;26166;48.264;11.436;2024-02-28T05:30:21;96254.69;;;10.04;59.54
10476;BME280;26166;48.264;11.436;2024-02-28T05:33:21;96250.44;;;10.03;59.59
10476;BME280;26166;48.264;11.436;2024-02-28T05:36:21;96254.03;;;10.02;59.26
10476;BME280;26166;48.264;11.436;2024-02-28T05:39:21;96261.41;;;9.98;59.31
10476;BME280;26166;48.264;11.436;2024-02-28T05:42:22;96262.22;;;9.99;59.60
10476;BME280;26166;48.264;11.436;2024-02-28T05:45:22;96263.72;;;10.01;59.30
10476;BME280;26166;48.264;11.436;2024-02-28T05:48:22;96274.22;;;10.01;59.31
10476;BME280;26166;48.264;11.436;2024-02-28T05:51:23;96284.72;;;10.01;59.50
10476;BME280;26166;48.264;11.436;2024-02-28T05:54:23;96296.84;;;10.02;59.75
10476;BME280;26166;48.264;11.436;2024-02-28T05:57:23;96299.28;;;10.04;59.43
10476;BME280;26166;48.264;11.436;2024-02-28T06:00:23;96306.53;;;10.02;59.71
10476;BME280;26166;48.264;11.436;2024-02-28T06:03:23;96301.09;;;10.03;59.31
10476;BME280;26166;48.264;11.436;2024-02-28T06:06:24;96315.84;;;10.04;59.70
10476;BME280;26166;48.264;11.436;2024-02-28T06:09:26;96318.66;;;10.03;59.68
10476;BME280;26166;48.264;11.436;2024-02-28T06:12:27;96325.72;;;10.02;59.40
10476;BME280;26166;48.264;11.436;2024-02-28T06:15:27;96326.53;;;10.03;59.60
10476;BME280;26166;48.264;11.436;2024-02-28T06:18:27;96331.59;;;10.04;59.32
10476;BME280;26166;48.264;11.436;2024-02-28T06:21:28;96338.53;;;10.05;59.36
10476;BME280;26166;48.264;11.436;2024-02-28T06:24:29;96337.03;;;10.03;59.52
10476;BME280;26166;48.264;11.436;2024-02-28T06:27:29;96334.41;;;10.03;59.49
10476;BME280;26166;48.264;11.436;2024-02-28T06:30:29;96343.91;;;10.04;59.37
10476;BME280;26166;48.264;11.436;2024-02-28T06:33:30;96345.72;;;10.03;59.64
10476;BME280;26166;48.264;11.436;2024-02-28T06:36:30;96349.03;;;10.05;59.38
10476;BME280;26166;48.264;11.436;2024-02-28T06:39:30;96354.28;;;10.05;59.60
10476;BME280;26166;48.264;11.436;2024-02-28T06:42:30;96359.53;;;10.05;59.24
10476;BME280;26166;48.264;11.436;2024-02-28T06:45:31;96369.50;;;10.02;59.71
10476;BME280;26166;48.264;11.436;2024-02-28T06:48:31;96369.50;;;10.02;59.66
10476;BME280;26166;48.264;11.436;2024-02-28T06:51:31;96369.66;;;10.00;59.56
10476;BME280;26166;48.264;11.436;2024-02-28T06:54:31;96373.44;;;9.98;59.94
10476;BME280;26166;48.264;11.436;2024-02-28T06:57:32;96374.56;;;9.95;59.81
10476;BME280;26166;48.264;11.436;2024-02-28T07:00:32;96375.25;;;9.97;59.68
10476;BME280;26166;48.264;11.436;2024-02-28T07:03:32;96382.94;;;9.99;59.31
10476;BME280;26166;48.264;11.436;2024-02-28T07:06:32;96383.13;;;9.97;59.62
10476;BME280;26166;48.264;11.436;2024-02-28T07:09:32;96385.88;;;9.96;59.93
10476;BME280;26166;48.264;11.436;2024-02-28T07:12:33;96389.50;;;9.95;59.80
10476;BME280;26166;48.264;11.436;2024-02-28T07:15:33;96391.81;;;9.98;59.51
10476;BME280;26166;48.264;11.436;2024-02-28T07:18:33;96390.81;;;9.99;59.81
10476;BME280;26166;48.264;11.436;2024-02-28T07:21:35;96390.81;;;9.99;59.86
10476;BME280;26166;48.264;11.436;2024-02-28T07:24:36;96389.19;;;9.98;59.50
10476;BME280;26166;48.264;11.436;2024-02-28T07:27:37;96385.56;;;9.99;59.63
10476;BME280;26166;48.264;11.436;2024-02-28T07:30:37;96390.81;;;9.99;59.82
10476;BME280;26166;48.264;11.436;2024-02-28T07:33:37;96390.81;;;9.99;59.66
10476;BME280;26166;48.264;11.436;2024-02-28T07:36:39;96386.72;;;9.96;59.62
10476;BME280;26166;48.264;11.436;2024-02-28T07:39:39;96389.50;;;9.95;60.04
10476;BME280;26166;48.264;11.436;2024-02-28T07:42:40;96388.50;;;9.96;59.61
10476;BME280;26166;48.264;11.436;2024-02-28T07:45:40;96391.13;;;9.96;59.68
10476;BME280;26166;48.264;11.436;2024-02-28T07:48:41;96394.72;;;9.95;59.78
10476;BME280;26166;48.264;11.436;2024-02-28T07:51:41;96393.75;;;9.96;59.98
10476;BME280;26166;48.264;11.436;2024-02-28T07:54:42;96393.75;;;9.96;59.78
10476;BME280;26166;48.264;11.436;2024-02-28T07:57:43;96400.50;;;9.98;59.68
10476;BME280;26166;48.264;11.436;2024-02-28T08:00:43;96394.44;;;9.98;59.70
10476;BME280;26166;48.264;11.436;2024-02-28T08:03:44;96401.31;;;9.99;59.86
10476;BME280;26166;48.264;11.436;2024-02-28T08:06:44;96400.50;;;9.98;59.88
10476;BME280;26166;48.264;11.436;2024-02-28T08:09:44;96407.72;;;9.96;59.89
10476;BME280;26166;48.264;11.436;2024-02-28T08:12:44;96411.97;;;9.97;59.97
10476;BME280;26166;48.264;11.436;2024-02-28T08:15:44;96405.22;;;9.95;60.01
10476;BME280;26166;48.264;11.436;2024-02-28T08:18:44;96410.47;;;9.95;60.25
10476;BME280;26166;48.264;11.436;2024-02-28T08:21:47;96414.91;;;9.94;59.72
10476;BME280;26166;48.264;11.436;2024-02-28T08:24:50;96423.59;;;9.95;60.18
10476;BME280;26166;48.264;11.436;2024-02-28T08:27:51;96411.47;;;9.94;60.03
10476;BME280;26166;48.264;11.436;2024-02-28T08:30:52;96417.69;;;9.93;60.09
10476;BME280;26166;48.264;11.436;2024-02-28T08:33:52;96426.56;;;9.92;60.21
10476;BME280;26166;48.264;11.436;2024-02-28T08:36:52;96424.59;;;9.94;60.28
10476;BME280;26166;48.264;11.436;2024-02-28T08:39:52;96432.47;;;9.94;60.31
10476;BME280;26166;48.264;11.436;2024-02-28T08:42:54;96435.72;;;9.96;60.16
10476;BME280;26166;48.264;11.436;2024-02-28T08:45:55;96440.03;;;9.97;59.93
10476;BME280;26166;48.264;11.436;2024-02-28T08:48:55;96440.03;;;9.97;60.26
10476;BME280;26166;48.264;11.436;2024-02-28T08:51:55;96442.66;;;9.97;60.00
10476;BME280;26166;48.264;11.436;2024-02-28T08:54:55;96446.91;;;9.98;60.31
10476;BME280;26166;48.264;11.436;2024-02-28T08:57:56;96450.19;;;10.00;60.11
10476;BME280;26166;48.264;11.436;2024-02-28T09:00:56;96442.31;;;10.00;60.05
10476;BME280;26166;48.264;11.436;2024-02-28T09:03:56;96455.44;;;10.00;59.88
10476;BME280;26166;48.264;11.436;2024-02-28T09:06:56;96443.00;;;10.02;59.87
10476;BME280;26166;48.264;11.436;2024-02-28T09:09:56;96448.53;;;9.99;59.82
10476;BME280;26166;48.264;11.436;2024-02-28T09:12:57;96455.44;;;10.00;60.24
10476;BME280;26166;48.264;11.436;2024-02-28T09:15:57;96453.50;;;10.02;60.12
10476;BME280;26166;48.264;11.436;2024-02-28T09:18:57;96465.78;;;10.01;59.97
10476;BME280;26166;48.264;11.436;2024-02-28T09:21:57;96465.13;;;9.99;60.10
10476;BME280;26166;48.264;11.436;2024-02-28T09:24:58;96475.59;;;9.99;60.13
10476;BME280;26166;48.264;11.436;2024-02-28T09:27:58;96468.56;;;10.00;59.94
10476;BME280;26166;48.264;11.436;2024-02-28T09:31:00;96470.53;;;9.98;59.85
10476;BME280;26166;48.264;11.436;2024-02-28T09:34:00;96473.16;;;9.98;60.25
10476;BME280;26166;48.264;11.436;2024-02-28T09:37:04;96477.06;;;9.94;60.25
10476;BME280;26166;48.264;11.436;2024-02-28T09:40:04;96475.44;;;9.93;60.47
10476;BME280;26166;48.264;11.436;2024-02-28T09:43:05;96479.03;;;9.92;60.36
10476;BME280;26166;48.264;11.436;2024-02-28T09:46:07;96481.66;;;9.92;60.45
10476;BME280;26166;48.264;11.436;2024-02-28T09:49:07;96489.53;;;9.92;60.20
10476;BME280;26166;48.264;11.436;2024-02-28T09:52:09;96488.56;;;9.93;60.17
10476;BME280;26166;48.264;11.436;2024-02-28T09:55:10;96492.97;;;9.92;60.52
10476;BME280;26166;48.264;11.436;2024-02-28T09:58:10;96492.81;;;9.94;60.29
10476;BME280;26166;48.264;11.436;2024-02-28T10:01:11;96494.16;;;9.98;60.27
10476;BME280;26166;48.264;11.436;2024-02-28T10:04:12;96488.91;;;9.98;60.00
10476;BME280;26166;48.264;11.436;2024-02-28T10:07:12;96495.78;;;9.99;60.17
10476;BME280;26166;48.264;11.436;2024-02-28T10:10:13;96485.28;;;9.99;60.01
10476;BME280;26166;48.264;11.436;2024-02-28T10:13:15;96489.53;;;10.00;60.22
10476;BME280;26166;48.264;11.436;2024-02-28T10:16:15;96493.84;;;10.01;60.00
10476;BME280;26166;48.264;11.436;2024-02-28T10:19:16;96499.09;;;10.01;60.22
10476;BME280;26166;48.264;11.436;2024-02-28T10:22:16;96499.09;;;10.01;59.92
10476;BME280;26166;48.264;11.436;2024-02-28T10:25:16;96497.41;;;10.00;60.28
10476;BME280;26166;48.264;11.436;2024-02-28T10:28:17;96503.34;;;10.02;59.94
10476;BME280;26166;48.264;11.436;2024-02-28T10:31:17;96508.91;;;9.99;60.51
10476;BME280;26166;48.264;11.436;2024-02-28T10:34:18;96508.75;;;10.00;60.36
10476;BME280;26166;48.264;11.436;2024-02-28T10:37:18;96504.47;;;9.99;60.46
10476;BME280;26166;48.264;11.436;2024-02-28T10:40:20;96511.38;;;10.00;60.32
10476;BME280;26166;48.264;11.436;2024-02-28T10:43:20;96506.97;;;10.01;60.07
10476;BME280;26166;48.264;11.436;2024-02-28T10:46:21;96507.28;;;9.98;60.12
10476;BME280;26166;48.264;11.436;2024-02-28T10:49:21;96506.28;;;9.99;60.53
10476;BME280;26166;48.264;11.436;2024-02-28T10:52:21;96513.34;;;9.98;60.22
10476;BME280;26166;48.264;11.436;2024-02-28T10:55:22;96510.72;;;9.98;60.22
10476;BME280;26166;48.264;11.436;2024-02-28T10:58:25;96515.13;;;9.98;60.25
10476;BME280;26166;48.264;11.436;2024-02-28T11:01:28;96520.09;;;10.01;60.20
10476;BME280;26166;48.264;11.436;2024-02-28T11:04:28;96518.13;;;10.03;60.44
10476;BME280;26166;48.264;11.436;2024-02-28T11:07:30;96519.25;;;10.00;60.16
10476;BME280;26166;48.264;11.436;2024-02-28T11:10:31;96514.66;;;10.02;60.48
10476;BME280;26166;48.264;11.436;2024-02-28T11:13:32;96521.72;;;10.02;60.23
10476;BME280;26166;48.264;11.436;2024-02-28T11:16:33;96520.09;;;10.01;60.36
10476;BME280;26166;48.264;11.436;2024-02-28T11:19:33;96523.38;;;10.03;60.58
10476;BME280;26166;48.264;11.436;2024-02-28T11:22:33;96528.59;;;10.03;60.10
10476;BME280;26166;48.264;11.436;2024-02-28T11:25:34;96525.16;;;10.02;60.06
10476;BME280;26166;48.264;11.436;2024-02-28T11:28:34;96518.28;;;10.01;60.29
10476;BME280;26166;48.264;11.436;2024-02-28T11:31:34;96519.25;;;10.00;60.47
10476;BME280;26166;48.264;11.436;2024-02-28T11:34:35;96523.84;;;9.98;60.46
10476;BME280;26166;48.264;11.436;2024-02-28T11:37:36;96524.81;;;9.97;60.76
10476;BME280;26166;48.264;11.436;2024-02-28T11:40:37;96524.00;;;9.97;60.36
10476;BME280;26166;48.264;11.436;2024-02-28T11:43:37;96526.28;;;10.00;60.46
10476;BME280;26166;48.264;11.436;2024-02-28T11:46:37;96526.97;;;10.02;59.97
10476;BME280;26166;48.264;11.436;2024-02-28T11:49:38;96524.19;;;10.03;60.27
10476;BME280;26166;48.264;11.436;2024-02-28T11:52:39;96531.06;;;10.04;59.79
10476;BME280;26166;48.264;11.436;2024-02-28T11:55:39;96533.84;;;10.03;59.86
10476;BME280;26166;48.264;11.436;2024-02-28T11:58:49;96528.91;;;10.00;60.06
10476;BME280;26166;48.264;11.436;2024-02-28T12:01:49;96529.72;;;10.00;60.41
10476;BME280;26166;48.264;11.436;2024-02-28T12:04:51;96528.59;;;10.03;60.15
10476;BME280;26166;48.264;11.436;2024-02-28T12:07:52;96528.44;;;10.04;59.88
10476;BME280;26166;48.264;11.436;2024-02-28T12:10:54;96525.00;;;10.04;60.11
10476;BME280;26166;48.264;11.436;2024-02-28T12:13:54;96529.44;;;10.03;60.10
10476;BME280;26166;48.264;11.436;2024-02-28T12:16:55;96536.31;;;10.04;59.92
10476;BME280;26166;48.264;11.436;2024-02-28T12:20:00;96529.44;;;10.03;60.17
10476;BME280;26166;48.264;11.436;2024-02-28T12:23:00;96526.00;;;10.03;60.24
10476;BME280;26166;48.264;11.436;2024-02-28T12:26:00;96532.22;;;10.02;59.62
10476;BME280;26166;48.264;11.436;2024-02-28T12:29:01;96523.38;;;10.03;60.26
10476;BME280;26166;48.264;11.436;2024-02-28T12:32:01;96519.75;;;10.04;59.75
10476;BME280;26166;48.264;11.436;2024-02-28T12:35:02;96525.81;;;10.04;59.99
10476;BME280;26166;48.264;11.436;2024-02-28T12:38:04;96531.22;;;10.03;59.76
10476;BME280;26166;48.264;11.436;2024-02-28T12:41:04;96526.00;;;10.03;59.63
10476;BME280;26166;48.264;11.436;2024-02-28T12:44:07;96529.44;;;10.03;59.83
10476;BME280;26166;48.264;11.436;2024-02-28T12:47:08;96530.25;;;10.04;60.11
10476;BME280;26166;48.264;11.436;2024-02-28T12:50:08;96528.44;;;10.04;59.74
10476;BME280;26166;48.264;11.436;2024-02-28T12:53:09;96522.38;;;10.04;59.76
10476;BME280;26166;48.264;11.436;2024-02-28T12:56:09;96528.59;;;10.03;59.62
10476;BME280;26166;48.264;11.436;2024-02-28T12:59:09;96530.25;;;10.04;59.80
10476;BME280;26166;48.264;11.436;2024-02-28T13:02:10;96525.00;;;10.04;59.84
10476;BME280;26166;48.264;11.436;2024-02-28T13:05:11;96530.25;;;10.04;59.79
10476;BME280;26166;48.264;11.436;2024-02-28T13:08:13;96528.59;;;10.03;59.79
10476;BME280;26166;48.264;11.436;2024-02-28T13:11:13;96527.63;;;10.04;59.67
10476;BME280;26166;48.264;11.436;2024-02-28T13:14:13;96529.28;;;10.05;60.09
10476;BME280;26166;48.264;11.436;2024-02-28T13:17:13;96526.66;;;10.05;59.71
10476;BME280;26166;48.264;11.436;2024-02-28T13:20:15;96525.81;;;10.04;59.69
10476;BME280;26166;48.264;11.436;2024-02-28T13:23:16;96522.53;;;10.02;60.12
10476;BME280;26166;48.264;11.436;2024-02-28T13:26:19;96530.41;;;10.02;60.01
10476;BME280;26166;48.264;11.436;2024-02-28T13:29:20;96525.00;;;10.04;60.18
10476;BME280;26166;48.264;11.436;2024-02-28T13:32:20;96529.44;;;10.03;60.11
10476;BME280;26166;48.264;11.436;2024-02-28T13:35:21;96525.16;;;10.02;60.16
10476;BME280;26166;48.264;11.436;2024-02-28T13:38:21;96529.44;;;10.03;59.92
10476;BME280;26166;48.264;11.436;2024-02-28T13:41:21;96527.63;;;10.04;59.73
10476;BME280;26166;48.264;11.436;2024-02-28T13:44:21;96525.81;;;10.04;59.77
10476;BME280;26166;48.264;11.436;2024-02-28T13:47:22;96530.59;;;10.01;60.02
10476;BME280;26166;48.264;11.436;2024-02-28T13:50:23;96526.97;;;10.02;60.01
10476;BME280;26166;48.264;11.436;2024-02-28T13:53:31;96525.00;;;10.04;59.54
10476;BME280;26166;48.264;11.436;2024-02-28T13:56:34;96533.03;;;10.02;59.73
10476;BME280;26166;48.264;11.436;2024-02-28T13:59:34;96525.00;;;10.04;59.95
10476;BME280;26166;48.264;11.436;2024-02-28T14:02:37;96533.84;;;10.03;59.76
10476;BME280;26166;48.264;11.436;2024-02-28T14:05:38;96539.94;;;10.03;59.66
10476;BME280;26166;48.264;11.436;2024-02-28T14:08:38;96531.91;;;10.05;59.70
10476;BME280;26166;48.264;11.436;2024-02-28T14:11:38;96536.31;;;10.04;59.59
10476;BME280;26166;48.264;11.436;2024-02-28T14:14:38;96537.16;;;10.05;59.77
10476;BME280;26166;48.264;11.436;2024-02-28T14:17:39;96534.22;;;10.08;59.78
10476;BME280;26166;48.264;11.436;2024-02-28T14:20:39;96535.19;;;10.07;59.60
10476;BME280;26166;48.264;11.436;2024-02-28T14:23:40;96540.28;;;10.08;59.88
10476;BME280;26166;48.264;11.436;2024-02-28T14:26:41;96536.84;;;10.08;59.88
10476;BME280;26166;48.264;11.436;2024-02-28T14:29:42;96538.13;;;10.04;59.75
10476;BME280;26166;48.264;11.436;2024-02-28T14:32:42;96531.75;;;10.06;59.58
10476;BME280;26166;48.264;11.436;2024-02-28T14:35:43;96529.94;;;10.07;59.60
10476;BME280;26166;48.264;11.436;2024-02-28T14:38:43;96537.66;;;10.08;59.64
10476;BME280;26166;48.264;11.436;2024-02-28T14:41:43;96539.31;;;10.09;59.80
10476;BME280;26166;48.264;11.436;2024-02-28T14:44:44;96554.22;;;10.09;59.81
10476;BME280;26166;48.264;11.436;2024-02-28T14:47:44;96552.28;;;10.11;59.41
10476;BME280;26166;48.264;11.436;2024-02-28T14:50:47;96547.19;;;10.09;59.54
10476;BME280;26166;48.264;11.436;2024-02-28T14:53:47;96546.34;;;10.09;59.48
10476;BME280;26166;48.264;11.436;2024-02-28T14:56:48;96561.44;;;10.07;59.70
10476;BME280;26166;48.264;11.436;2024-02-28T14:59:48;96553.41;;;10.08;59.61
10476;BME280;26166;48.264;11.436;2024-02-28T15:02:48;96548.00;;;10.10;59.52
10476;BME280;26166;48.264;11.436;2024-02-28T15:05:50;96550.94;;;10.07;59.67
10476;BME280;26166;48.264;11.436;2024-02-28T15:08:50;96552.59;;;10.08;59.59
10476;BME280;26166;48.264;11.436;2024-02-28T15:11:50;96555.22;;;10.08;59.75
10476;BME280;26166;48.264;11.436;2024-02-28T15:14:50;96557.19;;;10.06;59.48
10476;BME280;26166;48.264;11.436;2024-02-28T15:17:51;96549.31;;;10.06;59.60
10476;BME280;26166;48.264;11.436;2024-02-28T15:20:51;96557.31;;;10.04;59.28
10476;BME280;26166;48.264;11.436;2024-02-28T15:23:54;96558.16;;;10.05;59.65
10476;BME280;26166;48.264;11.436;2024-02-28T15:26:54;96560.78;;;10.05;59.68
10476;BME280;26166;48.264;11.436;2024-02-28T15:29:54;96562.09;;;10.09;59.42
10476;BME280;26166;48.264;11.436;2024-02-28T15:32:54;96552.59;;;10.08;59.21
10476;BME280;26166;48.264;11.436;2024-02-28T15:35:54;96557.84;;;10.08;59.43
10476;BME280;26166;48.264;11.436;2024-02-28T15:38:55;96563.75;;;10.10;59.24
10476;BME280;26166;48.264;11.436;2024-02-28T15:41:55;96558.50;;;10.10;59.37
10476;BME280;26166;48.264;11.436;2024-02-28T15:44:55;96556.84;;;10.09;58.97
10476;BME280;26166;48.264;11.436;2024-02-28T15:47:55;96561.44;;;10.07;59.27